sensor_id;sensor_type;location;lat;lon;timestamp;P1;durP1;ratioP1;P2;durP2;ratioP2
14092;SDS011;7123;49.468;10.992;2022-11-15T00:00:55;8.70;;;6.27;;
14092;SDS011;7123;49.468;10.992;2022-11-15T00:03:23;6.80;;;5.63;;
14092;SDS011;7123;49.468;10.992;2022-11-15T00:05:52;6.87;;;5.83;;
14092;SDS011;7123;49.468;10.992;2022-11-15T00:08:19;6.70;;;6.00;;
14092;SDS011;7123;49.468;10.992;2022-11-15T00:10:53;8.37;;;5.57;;
14092;SDS011;7123;49.468;10.992;2022-11-15T00:13:21;8.07;;;6.07;;
14092;SDS011;7123;49.468;10.992;2022-11-15T00:15:48;6.57;;;5.83;;
14092;SDS011;7123;49.468;10.992;2022-11-15T00:18:15;7.83;;;6.13;;
14092;SDS011;7123;49.468;10.992;2022-11-15T00:20:42;6.77;;;5.63;;
14092;SDS011;7123;49.468;10.992;2022-11-15T00:23:09;7.20;;;6.20;;
14092;SDS011;7123;49.468;10.992;2022-11-15T00:25:36;7.00;;;5.83;;
14092;SDS011;7123;49.468;10.992;2022-11-15T00:28:03;6.43;;;5.60;;
14092;SDS011;7123;49.468;10.992;2022-11-15T00:30:30;6.67;;;5.97;;
14092;SDS011;7123;49.468;10.992;2022-11-15T00:32:57;6.27;;;5.67;;
14092;SDS011;7123;49.468;10.992;2022-11-15T00:35:31;7.50;;;5.50;;
14092;SDS011;7123;49.468;10.992;2022-11-15T00:37:59;7.63;;;6.53;;
14092;SDS011;7123;49.468;10.992;2022-11-15T00:40:26;9.13;;;6.13;;
14092;SDS011;7123;49.468;10.992;2022-11-15T00:42:53;6.63;;;5.63;;
14092;SDS011;7123;49.468;10.992;2022-11-15T00:45:20;7.57;;;6.10;;
14092;SDS011;7123;49.468;10.992;2022-11-15T00:47:47;8.27;;;5.80;;
14092;SDS011;7123;49.468;10.992;2022-11-15T00:50:14;10.17;;;6.63;;
14092;SDS011;7123;49.468;10.992;2022-11-15T00:52:41;6.80;;;6.00;;
14092;SDS011;7123;49.468;10.992;2022-11-15T00:55:09;6.90;;;5.93;;
14092;SDS011;7123;49.468;10.992;2022-11-15T00:57:41;6.27;;;5.67;;
14092;SDS011;7123;49.468;10.992;2022-11-15T01:00:08;7.33;;;6.07;;
14092;SDS011;7123;49.468;10.992;2022-11-15T01:02:35;6.90;;;6.20;;
14092;SDS011;7123;49.468;10.992;2022-11-15T01:05:02;8.13;;;6.20;;
14092;SDS011;7123;49.468;10.992;2022-11-15T01:07:28;6.77;;;6.07;;
14092;SDS011;7123;49.468;10.992;2022-11-15T01:09:55;7.33;;;5.80;;
14092;SDS011;7123;49.468;10.992;2022-11-15T01:12:22;6.87;;;5.80;;
14092;SDS011;7123;49.468;10.992;2022-11-15T01:14:49;7.67;;;5.83;;
14092;SDS011;7123;49.468;10.992;2022-11-15T01:17:15;7.97;;;6.47;;
14092;SDS011;7123;49.468;10.992;2022-11-15T01:19:42;7.20;;;6.47;;
14092;SDS011;7123;49.468;10.992;2022-11-15T01:22:09;8.83;;;6.47;;
14092;SDS011;7123;49.468;10.992;2022-11-15T01:24:36;6.90;;;6.20;;
14092;SDS011;7123;49.468;10.992;2022-11-15T01:27:02;6.33;;;5.73;;
14092;SDS011;7123;49.468;10.992;2022-11-15T01:29:29;6.83;;;6.13;;
14092;SDS011;7123;49.468;10.992;2022-11-15T01:31:56;7.43;;;6.57;;
14092;SDS011;7123;49.468;10.992;2022-11-15T01:34:22;7.20;;;6.50;;
14092;SDS011;7123;49.468;10.992;2022-11-15T01:36:49;8.97;;;5.93;;
14092;SDS011;7123;49.468;10.992;2022-11-15T01:39:16;7.40;;;6.17;;
14092;SDS011;7123;49.468;10.992;2022-11-15T01:41:43;7.83;;;6.47;;
14092;SDS011;7123;49.468;10.992;2022-11-15T01:44:31;6.67;;;6.03;;
14092;SDS011;7123;49.468;10.992;2022-11-15T01:47:35;7.40;;;6.13;;
14092;SDS011;7123;49.468;10.992;2022-11-15T01:50:17;7.90;;;6.63;;
14092;SDS011;7123;49.468;10.992;2022-11-15T01:52:48;7.07;;;6.33;;
14092;SDS011;7123;49.468;10.992;2022-11-15T01:55:21;7.13;;;6.43;;
14092;SDS011;7123;49.468;10.992;2022-11-15T01:57:53;6.70;;;6.00;;
14092;SDS011;7123;49.468;10.992;2022-11-15T02:00:23;8.07;;;6.00;;
14092;SDS011;7123;49.468;10.992;2022-11-15T02:02:49;7.97;;;7.17;;
14092;SDS011;7123;49.468;10.992;2022-11-15T02:05:16;8.57;;;6.63;;
14092;SDS011;7123;49.468;10.992;2022-11-15T02:07:43;10.47;;;7.17;;
14092;SDS011;7123;49.468;10.992;2022-11-15T02:10:12;8.30;;;6.60;;
14092;SDS011;7123;49.468;10.992;2022-11-15T02:12:44;8.73;;;6.43;;
14092;SDS011;7123;49.468;10.992;2022-11-15T02:15:11;7.43;;;6.63;;
14092;SDS011;7123;49.468;10.992;2022-11-15T02:17:51;7.40;;;6.47;;
14092;SDS011;7123;49.468;10.992;2022-11-15T02:23:06;7.57;;;5.97;;
14092;SDS011;7123;49.468;10.992;2022-11-15T02:28:42;7.00;;;6.30;;
14092;SDS011;7123;49.468;10.992;2022-11-15T02:31:13;8.83;;;6.63;;
14092;SDS011;7123;49.468;10.992;2022-11-15T02:34:04;8.30;;;6.47;;
14092;SDS011;7123;49.468;10.992;2022-11-15T02:36:49;7.63;;;6.37;;
14092;SDS011;7123;49.468;10.992;2022-11-15T02:42:41;7.43;;;6.57;;
14092;SDS011;7123;49.468;10.992;2022-11-15T02:45:39;7.47;;;6.50;;
14092;SDS011;7123;49.468;10.992;2022-11-15T02:48:09;7.57;;;6.03;;
14092;SDS011;7123;49.468;10.992;2022-11-15T02:50:38;6.90;;;6.13;;
14092;SDS011;7123;49.468;10.992;2022-11-15T02:53:04;8.20;;;6.47;;
14092;SDS011;7123;49.468;10.992;2022-11-15T02:55:32;8.53;;;6.63;;
14092;SDS011;7123;49.468;10.992;2022-11-15T03:12:07;6.97;;;6.27;;
14092;SDS011;7123;49.468;10.992;2022-11-15T03:17:34;7.87;;;6.13;;
14092;SDS011;7123;49.468;10.992;2022-11-15T03:20:04;7.00;;;6.20;;
14092;SDS011;7123;49.468;10.992;2022-11-15T03:22:35;7.03;;;6.13;;
14092;SDS011;7123;49.468;10.992;2022-11-15T03:25:06;6.57;;;5.87;;
14092;SDS011;7123;49.468;10.992;2022-11-15T03:27:41;6.97;;;6.17;;
14092;SDS011;7123;49.468;10.992;2022-11-15T03:30:12;8.97;;;6.47;;
14092;SDS011;7123;49.468;10.992;2022-11-15T03:32:42;7.90;;;6.33;;
14092;SDS011;7123;49.468;10.992;2022-11-15T03:35:21;7.17;;;6.33;;
14092;SDS011;7123;49.468;10.992;2022-11-15T03:37:57;6.37;;;5.77;;
14092;SDS011;7123;49.468;10.992;2022-11-15T03:40:59;8.30;;;6.03;;
14092;SDS011;7123;49.468;10.992;2022-11-15T03:43:35;7.83;;;6.10;;
14092;SDS011;7123;49.468;10.992;2022-11-15T03:46:16;7.77;;;5.97;;
14092;SDS011;7123;49.468;10.992;2022-11-15T03:48:49;10.13;;;5.63;;
14092;SDS011;7123;49.468;10.992;2022-11-15T03:51:20;7.00;;;6.13;;
14092;SDS011;7123;49.468;10.992;2022-11-15T03:53:47;8.70;;;5.70;;
14092;SDS011;7123;49.468;10.992;2022-11-15T03:56:14;7.83;;;6.40;;
14092;SDS011;7123;49.468;10.992;2022-11-15T03:58:41;6.53;;;5.87;;
14092;SDS011;7123;49.468;10.992;2022-11-15T04:01:07;7.70;;;6.30;;
14092;SDS011;7123;49.468;10.992;2022-11-15T04:03:34;6.17;;;5.57;;
14092;SDS011;7123;49.468;10.992;2022-11-15T04:06:01;7.30;;;6.00;;
14092;SDS011;7123;49.468;10.992;2022-11-15T04:08:28;7.53;;;6.00;;
14092;SDS011;7123;49.468;10.992;2022-11-15T04:10:54;8.70;;;6.13;;
14092;SDS011;7123;49.468;10.992;2022-11-15T04:13:21;6.30;;;5.70;;
14092;SDS011;7123;49.468;10.992;2022-11-15T04:15:48;8.80;;;6.10;;
14092;SDS011;7123;49.468;10.992;2022-11-15T04:18:14;6.03;;;5.43;;
14092;SDS011;7123;49.468;10.992;2022-11-15T04:20:41;7.43;;;5.67;;
14092;SDS011;7123;49.468;10.992;2022-11-15T04:23:37;6.60;;;5.57;;
14092;SDS011;7123;49.468;10.992;2022-11-15T04:26:19;8.33;;;5.70;;
14092;SDS011;7123;49.468;10.992;2022-11-15T04:28:48;6.57;;;5.97;;
14092;SDS011;7123;49.468;10.992;2022-11-15T04:31:33;6.53;;;5.83;;
14092;SDS011;7123;49.468;10.992;2022-11-15T04:34:00;6.20;;;5.60;;
14092;SDS011;7123;49.468;10.992;2022-11-15T04:36:27;7.17;;;5.70;;
14092;SDS011;7123;49.468;10.992;2022-11-15T04:39:12;7.40;;;6.50;;
14092;SDS011;7123;49.468;10.992;2022-11-15T04:41:39;6.23;;;5.60;;
14092;SDS011;7123;49.468;10.992;2022-11-15T04:44:05;6.40;;;5.80;;
14092;SDS011;7123;49.468;10.992;2022-11-15T04:46:32;6.20;;;5.60;;
14092;SDS011;7123;49.468;10.992;2022-11-15T04:48:59;7.97;;;5.63;;
14092;SDS011;7123;49.468;10.992;2022-11-15T04:51:25;7.23;;;5.60;;
14092;SDS011;7123;49.468;10.992;2022-11-15T04:53:52;7.37;;;6.20;;
14092;SDS011;7123;49.468;10.992;2022-11-15T04:56:19;7.93;;;5.80;;
14092;SDS011;7123;49.468;10.992;2022-11-15T04:58:48;8.13;;;6.27;;
14092;SDS011;7123;49.468;10.992;2022-11-15T05:01:15;7.57;;;5.07;;
14092;SDS011;7123;49.468;10.992;2022-11-15T05:03:43;7.73;;;5.83;;
14092;SDS011;7123;49.468;10.992;2022-11-15T05:06:29;7.07;;;5.80;;
14092;SDS011;7123;49.468;10.992;2022-11-15T05:08:56;8.50;;;6.07;;
14092;SDS011;7123;49.468;10.992;2022-11-15T05:11:23;6.53;;;5.77;;
14092;SDS011;7123;49.468;10.992;2022-11-15T05:13:50;6.17;;;5.57;;
14092;SDS011;7123;49.468;10.992;2022-11-15T05:16:16;7.33;;;6.30;;
14092;SDS011;7123;49.468;10.992;2022-11-15T05:18:43;12.63;;;5.93;;
14092;SDS011;7123;49.468;10.992;2022-11-15T05:21:11;11.27;;;7.30;;
14092;SDS011;7123;49.468;10.992;2022-11-15T05:23:39;9.17;;;5.87;;
14092;SDS011;7123;49.468;10.992;2022-11-15T05:26:07;8.70;;;6.07;;
14092;SDS011;7123;49.468;10.992;2022-11-15T05:28:35;8.23;;;6.40;;
14092;SDS011;7123;49.468;10.992;2022-11-15T05:33:37;5.60;;;5.10;;
14092;SDS011;7123;49.468;10.992;2022-11-15T05:39:11;11.13;;;5.60;;
14092;SDS011;7123;49.468;10.992;2022-11-15T05:44:10;6.80;;;5.33;;
14092;SDS011;7123;49.468;10.992;2022-11-15T05:46:40;6.10;;;5.50;;
14092;SDS011;7123;49.468;10.992;2022-11-15T05:49:09;6.83;;;5.20;;
14092;SDS011;7123;49.468;10.992;2022-11-15T05:51:39;7.03;;;5.17;;
14092;SDS011;7123;49.468;10.992;2022-11-15T05:54:07;6.07;;;5.47;;
14092;SDS011;7123;49.468;10.992;2022-11-15T05:56:34;6.13;;;4.93;;
14092;SDS011;7123;49.468;10.992;2022-11-15T05:59:00;7.83;;;5.60;;
14092;SDS011;7123;49.468;10.992;2022-11-15T06:01:28;7.27;;;5.33;;
14092;SDS011;7123;49.468;10.992;2022-11-15T06:03:55;6.07;;;4.97;;
14092;SDS011;7123;49.468;10.992;2022-11-15T06:06:22;7.10;;;5.57;;
14092;SDS011;7123;49.468;10.992;2022-11-15T06:08:48;8.20;;;5.90;;
14092;SDS011;7123;49.468;10.992;2022-11-15T06:11:15;10.37;;;5.90;;
14092;SDS011;7123;49.468;10.992;2022-11-15T06:13:42;7.73;;;5.63;;
14092;SDS011;7123;49.468;10.992;2022-11-15T06:16:08;8.20;;;6.03;;
14092;SDS011;7123;49.468;10.992;2022-11-15T06:18:35;12.03;;;6.20;;
14092;SDS011;7123;49.468;10.992;2022-11-15T06:21:03;7.97;;;6.20;;
14092;SDS011;7123;49.468;10.992;2022-11-15T06:23:31;8.07;;;5.90;;
14092;SDS011;7123;49.468;10.992;2022-11-15T06:25:59;11.23;;;6.30;;
14092;SDS011;7123;49.468;10.992;2022-11-15T06:28:31;11.83;;;5.97;;
14092;SDS011;7123;49.468;10.992;2022-11-15T06:31:02;8.03;;;5.40;;
14092;SDS011;7123;49.468;10.992;2022-11-15T06:33:29;7.90;;;5.37;;
14092;SDS011;7123;49.468;10.992;2022-11-15T06:36:00;7.33;;;5.50;;
14092;SDS011;7123;49.468;10.992;2022-11-15T06:38:27;6.93;;;5.50;;
14092;SDS011;7123;49.468;10.992;2022-11-15T06:40:54;10.57;;;5.83;;
14092;SDS011;7123;49.468;10.992;2022-11-15T06:43:21;11.20;;;6.10;;
14092;SDS011;7123;49.468;10.992;2022-11-15T06:45:47;6.03;;;4.90;;
14092;SDS011;7123;49.468;10.992;2022-11-15T06:48:14;8.83;;;5.27;;
14092;SDS011;7123;49.468;10.992;2022-11-15T06:50:41;7.90;;;5.90;;
14092;SDS011;7123;49.468;10.992;2022-11-15T06:53:07;6.03;;;4.87;;
14092;SDS011;7123;49.468;10.992;2022-11-15T06:55:34;8.67;;;6.10;;
14092;SDS011;7123;49.468;10.992;2022-11-15T06:58:01;11.00;;;6.07;;
14092;SDS011;7123;49.468;10.992;2022-11-15T07:00:27;8.40;;;6.07;;
14092;SDS011;7123;49.468;10.992;2022-11-15T07:02:54;6.30;;;5.70;;
14092;SDS011;7123;49.468;10.992;2022-11-15T07:05:21;8.23;;;5.87;;
14092;SDS011;7123;49.468;10.992;2022-11-15T07:07:51;8.10;;;6.17;;
14092;SDS011;7123;49.468;10.992;2022-11-15T07:10:19;8.33;;;5.60;;
14092;SDS011;7123;49.468;10.992;2022-11-15T07:12:47;9.00;;;5.93;;
14092;SDS011;7123;49.468;10.992;2022-11-15T07:15:15;7.63;;;6.50;;
14092;SDS011;7123;49.468;10.992;2022-11-15T07:17:42;7.17;;;6.47;;
14092;SDS011;7123;49.468;10.992;2022-11-15T07:20:09;11.83;;;6.47;;
14092;SDS011;7123;49.468;10.992;2022-11-15T07:22:37;9.23;;;5.43;;
14092;SDS011;7123;49.468;10.992;2022-11-15T07:25:03;6.63;;;5.83;;
14092;SDS011;7123;49.468;10.992;2022-11-15T07:27:30;11.03;;;5.80;;
14092;SDS011;7123;49.468;10.992;2022-11-15T07:29:57;7.67;;;5.63;;
14092;SDS011;7123;49.468;10.992;2022-11-15T07:32:24;6.90;;;5.67;;
14092;SDS011;7123;49.468;10.992;2022-11-15T07:34:51;11.17;;;6.07;;
14092;SDS011;7123;49.468;10.992;2022-11-15T07:37:18;8.37;;;6.23;;
14092;SDS011;7123;49.468;10.992;2022-11-15T07:39:44;11.70;;;5.77;;
14092;SDS011;7123;49.468;10.992;2022-11-15T07:42:12;9.47;;;6.60;;
14092;SDS011;7123;49.468;10.992;2022-11-15T07:44:57;9.90;;;5.50;;
14092;SDS011;7123;49.468;10.992;2022-11-15T07:47:24;8.10;;;5.57;;
14092;SDS011;7123;49.468;10.992;2022-11-15T07:49:50;7.80;;;5.73;;
14092;SDS011;7123;49.468;10.992;2022-11-15T07:52:18;7.27;;;5.43;;
14092;SDS011;7123;49.468;10.992;2022-11-15T07:54:44;8.67;;;5.87;;
14092;SDS011;7123;49.468;10.992;2022-11-15T07:57:11;6.37;;;5.73;;
14092;SDS011;7123;49.468;10.992;2022-11-15T07:59:38;11.00;;;5.93;;
14092;SDS011;7123;49.468;10.992;2022-11-15T08:02:04;7.77;;;6.23;;
14092;SDS011;7123;49.468;10.992;2022-11-15T08:04:31;9.53;;;6.33;;
14092;SDS011;7123;49.468;10.992;2022-11-15T08:06:58;7.97;;;6.63;;
14092;SDS011;7123;49.468;10.992;2022-11-15T08:09:25;8.97;;;6.13;;
14092;SDS011;7123;49.468;10.992;2022-11-15T08:11:52;7.43;;;5.83;;
14092;SDS011;7123;49.468;10.992;2022-11-15T08:14:18;9.03;;;6.37;;
14092;SDS011;7123;49.468;10.992;2022-11-15T08:16:47;8.63;;;6.20;;
14092;SDS011;7123;49.468;10.992;2022-11-15T08:19:14;16.10;;;6.43;;
14092;SDS011;7123;49.468;10.992;2022-11-15T08:21:41;8.83;;;5.87;;
14092;SDS011;7123;49.468;10.992;2022-11-15T08:24:09;9.37;;;6.07;;
14092;SDS011;7123;49.468;10.992;2022-11-15T08:26:36;9.03;;;6.67;;
14092;SDS011;7123;49.468;10.992;2022-11-15T08:29:03;9.33;;;5.90;;
14092;SDS011;7123;49.468;10.992;2022-11-15T08:31:30;6.67;;;5.97;;
14092;SDS011;7123;49.468;10.992;2022-11-15T08:33:57;8.73;;;5.83;;
14092;SDS011;7123;49.468;10.992;2022-11-15T08:36:23;7.33;;;6.03;;
14092;SDS011;7123;49.468;10.992;2022-11-15T08:38:50;9.73;;;6.43;;
14092;SDS011;7123;49.468;10.992;2022-11-15T08:41:20;7.00;;;5.80;;
14092;SDS011;7123;49.468;10.992;2022-11-15T08:44:07;8.63;;;5.90;;
14092;SDS011;7123;49.468;10.992;2022-11-15T08:46:33;6.67;;;5.80;;
14092;SDS011;7123;49.468;10.992;2022-11-15T08:49:00;7.27;;;5.93;;
14092;SDS011;7123;49.468;10.992;2022-11-15T08:51:27;8.30;;;5.50;;
14092;SDS011;7123;49.468;10.992;2022-11-15T08:53:53;7.37;;;5.70;;
14092;SDS011;7123;49.468;10.992;2022-11-15T08:56:20;6.50;;;5.50;;
14092;SDS011;7123;49.468;10.992;2022-11-15T08:58:47;7.83;;;5.17;;
14092;SDS011;7123;49.468;10.992;2022-11-15T09:01:17;6.80;;;5.47;;
14092;SDS011;7123;49.468;10.992;2022-11-15T09:03:46;6.87;;;5.47;;
14092;SDS011;7123;49.468;10.992;2022-11-15T09:06:12;9.80;;;5.90;;
14092;SDS011;7123;49.468;10.992;2022-11-15T09:08:39;5.57;;;5.07;;
14092;SDS011;7123;49.468;10.992;2022-11-15T09:11:13;5.50;;;4.93;;
14092;SDS011;7123;49.468;10.992;2022-11-15T09:13:40;5.40;;;4.90;;
14092;SDS011;7123;49.468;10.992;2022-11-15T09:16:07;6.03;;;5.43;;
14092;SDS011;7123;49.468;10.992;2022-11-15T09:18:34;9.40;;;5.60;;
14092;SDS011;7123;49.468;10.992;2022-11-15T09:21:01;7.17;;;5.17;;
14092;SDS011;7123;49.468;10.992;2022-11-15T09:23:28;4.90;;;4.40;;
14092;SDS011;7123;49.468;10.992;2022-11-15T09:25:59;8.73;;;4.90;;
14092;SDS011;7123;49.468;10.992;2022-11-15T09:28:27;5.33;;;4.83;;
14092;SDS011;7123;49.468;10.992;2022-11-15T09:30:58;5.50;;;5.00;;
14092;SDS011;7123;49.468;10.992;2022-11-15T09:33:30;5.13;;;4.70;;
14092;SDS011;7123;49.468;10.992;2022-11-15T09:36:01;7.20;;;4.67;;
14092;SDS011;7123;49.468;10.992;2022-11-15T09:38:32;5.10;;;4.60;;
14092;SDS011;7123;49.468;10.992;2022-11-15T09:49:19;6.37;;;5.27;;
14092;SDS011;7123;49.468;10.992;2022-11-15T09:51:47;4.93;;;4.53;;
14092;SDS011;7123;49.468;10.992;2022-11-15T09:57:18;7.27;;;4.43;;
14092;SDS011;7123;49.468;10.992;2022-11-15T10:06:46;6.93;;;4.97;;
14092;SDS011;7123;49.468;10.992;2022-11-15T10:09:12;6.60;;;5.50;;
14092;SDS011;7123;49.468;10.992;2022-11-15T10:11:49;6.40;;;4.80;;
14092;SDS011;7123;49.468;10.992;2022-11-15T10:14:20;5.60;;;4.23;;
14092;SDS011;7123;49.468;10.992;2022-11-15T10:19:31;6.50;;;4.53;;
14092;SDS011;7123;49.468;10.992;2022-11-15T10:27:35;6.50;;;4.40;;
14092;SDS011;7123;49.468;10.992;2022-11-15T10:30:03;4.33;;;3.93;;
14092;SDS011;7123;49.468;10.992;2022-11-15T10:32:36;4.73;;;3.93;;
14092;SDS011;7123;49.468;10.992;2022-11-15T10:35:26;4.23;;;3.83;;
14092;SDS011;7123;49.468;10.992;2022-11-15T10:38:13;4.90;;;4.00;;
14092;SDS011;7123;49.468;10.992;2022-11-15T10:40:40;4.63;;;3.83;;
14092;SDS011;7123;49.468;10.992;2022-11-15T10:45:37;4.23;;;3.83;;
14092;SDS011;7123;49.468;10.992;2022-11-15T10:50:43;4.10;;;3.60;;
14092;SDS011;7123;49.468;10.992;2022-11-15T10:53:31;5.07;;;3.97;;
14092;SDS011;7123;49.468;10.992;2022-11-15T10:56:06;6.40;;;3.43;;
14092;SDS011;7123;49.468;10.992;2022-11-15T10:58:39;4.10;;;3.27;;
14092;SDS011;7123;49.468;10.992;2022-11-15T11:01:17;4.37;;;3.47;;
14092;SDS011;7123;49.468;10.992;2022-11-15T11:06:27;2.83;;;2.63;;
14092;SDS011;7123;49.468;10.992;2022-11-15T11:11:43;3.57;;;3.27;;
14092;SDS011;7123;49.468;10.992;2022-11-15T11:14:31;3.83;;;2.90;;
14092;SDS011;7123;49.468;10.992;2022-11-15T11:22:42;3.40;;;2.60;;
14092;SDS011;7123;49.468;10.992;2022-11-15T11:33:24;3.53;;;2.90;;
14092;SDS011;7123;49.468;10.992;2022-11-15T11:38:56;2.73;;;2.53;;
14092;SDS011;7123;49.468;10.992;2022-11-15T11:47:24;2.60;;;2.40;;
14092;SDS011;7123;49.468;10.992;2022-11-15T11:49:59;2.63;;;2.43;;
14092;SDS011;7123;49.468;10.992;2022-11-15T11:55:39;6.73;;;2.73;;
14092;SDS011;7123;49.468;10.992;2022-11-15T12:00:54;2.50;;;2.33;;
14092;SDS011;7123;49.468;10.992;2022-11-15T12:03:38;5.00;;;2.50;;
14092;SDS011;7123;49.468;10.992;2022-11-15T12:06:27;2.47;;;2.27;;
14092;SDS011;7123;49.468;10.992;2022-11-15T12:09:10;2.77;;;2.47;;
14092;SDS011;7123;49.468;10.992;2022-11-15T12:17:30;2.17;;;2.07;;
14092;SDS011;7123;49.468;10.992;2022-11-15T12:19:58;2.27;;;2.10;;
14092;SDS011;7123;49.468;10.992;2022-11-15T12:22:38;2.90;;;2.20;;
14092;SDS011;7123;49.468;10.992;2022-11-15T12:28:06;2.83;;;2.00;;
14092;SDS011;7123;49.468;10.992;2022-11-15T12:30:46;2.07;;;1.90;;
14092;SDS011;7123;49.468;10.992;2022-11-15T12:33:34;2.00;;;1.90;;
14092;SDS011;7123;49.468;10.992;2022-11-15T12:36:11;2.87;;;2.57;;
14092;SDS011;7123;49.468;10.992;2022-11-15T12:41:30;2.77;;;1.93;;
14092;SDS011;7123;49.468;10.992;2022-11-15T12:43:59;2.23;;;1.87;;
14092;SDS011;7123;49.468;10.992;2022-11-15T12:48:59;2.40;;;2.20;;
14092;SDS011;7123;49.468;10.992;2022-11-15T13:04:52;2.20;;;2.00;;
14092;SDS011;7123;49.468;10.992;2022-11-15T13:17:47;3.07;;;2.20;;
14092;SDS011;7123;49.468;10.992;2022-11-15T13:25:38;1.93;;;1.83;;
14092;SDS011;7123;49.468;10.992;2022-11-15T13:33:23;2.30;;;2.00;;
14092;SDS011;7123;49.468;10.992;2022-11-15T13:36:05;2.33;;;2.13;;
14092;SDS011;7123;49.468;10.992;2022-11-15T13:38:36;2.50;;;2.30;;
14092;SDS011;7123;49.468;10.992;2022-11-15T13:43:47;6.30;;;2.27;;
14092;SDS011;7123;49.468;10.992;2022-11-15T13:46:28;4.00;;;2.00;;
14092;SDS011;7123;49.468;10.992;2022-11-15T13:49:00;4.83;;;2.20;;
14092;SDS011;7123;49.468;10.992;2022-11-15T13:51:29;4.73;;;2.27;;
14092;SDS011;7123;49.468;10.992;2022-11-15T13:56:39;2.27;;;2.07;;
14092;SDS011;7123;49.468;10.992;2022-11-15T13:59:10;2.40;;;2.20;;
14092;SDS011;7123;49.468;10.992;2022-11-15T14:01:45;2.50;;;2.17;;
14092;SDS011;7123;49.468;10.992;2022-11-15T14:04:13;2.00;;;1.90;;
14092;SDS011;7123;49.468;10.992;2022-11-15T14:06:45;2.67;;;2.03;;
14092;SDS011;7123;49.468;10.992;2022-11-15T14:09:39;2.90;;;2.70;;
14092;SDS011;7123;49.468;10.992;2022-11-15T14:12:28;3.33;;;2.40;;
14092;SDS011;7123;49.468;10.992;2022-11-15T14:15:46;2.85;;;2.65;;
14092;SDS011;7123;49.468;10.992;2022-11-15T14:17:55;2.57;;;2.27;;
14092;SDS011;7123;49.468;10.992;2022-11-15T14:22:52;3.80;;;2.50;;
14092;SDS011;7123;49.468;10.992;2022-11-15T14:25:26;2.60;;;2.40;;
14092;SDS011;7123;49.468;10.992;2022-11-15T14:28:11;2.60;;;2.23;;
14092;SDS011;7123;49.468;10.992;2022-11-15T14:30:42;2.90;;;2.70;;
14092;SDS011;7123;49.468;10.992;2022-11-15T14:36:11;3.70;;;2.40;;
14092;SDS011;7123;49.468;10.992;2022-11-15T14:38:42;3.63;;;2.80;;
14092;SDS011;7123;49.468;10.992;2022-11-15T14:41:23;4.57;;;2.90;;
14092;SDS011;7123;49.468;10.992;2022-11-15T14:43:51;2.73;;;2.53;;
14092;SDS011;7123;49.468;10.992;2022-11-15T14:46:18;3.20;;;2.80;;
14092;SDS011;7123;49.468;10.992;2022-11-15T14:48:45;5.20;;;2.53;;
14092;SDS011;7123;49.468;10.992;2022-11-15T14:51:13;3.03;;;2.43;;
14092;SDS011;7123;49.468;10.992;2022-11-15T14:53:42;3.13;;;2.83;;
14092;SDS011;7123;49.468;10.992;2022-11-15T14:56:11;2.97;;;2.57;;
14092;SDS011;7123;49.468;10.992;2022-11-15T14:58:38;3.00;;;2.80;;
14092;SDS011;7123;49.468;10.992;2022-11-15T15:01:10;4.07;;;2.87;;
14092;SDS011;7123;49.468;10.992;2022-11-15T15:03:50;5.83;;;3.43;;
14092;SDS011;7123;49.468;10.992;2022-11-15T15:06:18;3.07;;;2.70;;
14092;SDS011;7123;49.468;10.992;2022-11-15T15:08:45;5.80;;;3.20;;
14092;SDS011;7123;49.468;10.992;2022-11-15T15:11:16;4.03;;;3.23;;
14092;SDS011;7123;49.468;10.992;2022-11-15T15:13:50;7.93;;;3.13;;
14092;SDS011;7123;49.468;10.992;2022-11-15T15:16:18;4.10;;;2.97;;
14092;SDS011;7123;49.468;10.992;2022-11-15T15:18:45;5.07;;;3.30;;
14092;SDS011;7123;49.468;10.992;2022-11-15T15:21:34;5.43;;;3.53;;
14092;SDS011;7123;49.468;10.992;2022-11-15T15:24:03;6.77;;;3.50;;
14092;SDS011;7123;49.468;10.992;2022-11-15T15:26:30;3.60;;;3.30;;
14092;SDS011;7123;49.468;10.992;2022-11-15T15:28:59;3.33;;;3.03;;
14092;SDS011;7123;49.468;10.992;2022-11-15T15:31:26;6.40;;;3.27;;
14092;SDS011;7123;49.468;10.992;2022-11-15T15:33:53;4.17;;;3.20;;
14092;SDS011;7123;49.468;10.992;2022-11-15T15:36:19;3.43;;;3.10;;
14092;SDS011;7123;49.468;10.992;2022-11-15T15:38:46;8.53;;;3.50;;
14092;SDS011;7123;49.468;10.992;2022-11-15T15:41:14;5.20;;;3.97;;
14092;SDS011;7123;49.468;10.992;2022-11-15T15:43:41;4.20;;;3.10;;
14092;SDS011;7123;49.468;10.992;2022-11-15T15:46:12;4.13;;;3.70;;
14092;SDS011;7123;49.468;10.992;2022-11-15T15:48:41;3.70;;;3.30;;
14092;SDS011;7123;49.468;10.992;2022-11-15T15:51:07;3.33;;;3.03;;
14092;SDS011;7123;49.468;10.992;2022-11-15T15:53:45;4.13;;;3.73;;
14092;SDS011;7123;49.468;10.992;2022-11-15T15:56:12;6.17;;;3.53;;
14092;SDS011;7123;49.468;10.992;2022-11-15T15:58:39;3.80;;;3.07;;
14092;SDS011;7123;49.468;10.992;2022-11-15T16:01:05;6.13;;;3.60;;
14092;SDS011;7123;49.468;10.992;2022-11-15T16:03:32;7.67;;;3.83;;
14092;SDS011;7123;49.468;10.992;2022-11-15T16:05:59;4.20;;;3.80;;
14092;SDS011;7123;49.468;10.992;2022-11-15T16:08:27;3.93;;;3.63;;
14092;SDS011;7123;49.468;10.992;2022-11-15T16:11:13;9.23;;;4.17;;
14092;SDS011;7123;49.468;10.992;2022-11-15T16:13:40;3.60;;;3.30;;
14092;SDS011;7123;49.468;10.992;2022-11-15T16:16:07;5.23;;;3.50;;
14092;SDS011;7123;49.468;10.992;2022-11-15T16:18:38;5.23;;;3.87;;
14092;SDS011;7123;49.468;10.992;2022-11-15T16:21:05;4.83;;;3.70;;
14092;SDS011;7123;49.468;10.992;2022-11-15T16:23:33;4.30;;;3.90;;
14092;SDS011;7123;49.468;10.992;2022-11-15T16:26:00;4.90;;;3.90;;
14092;SDS011;7123;49.468;10.992;2022-11-15T16:28:30;6.73;;;3.97;;
14092;SDS011;7123;49.468;10.992;2022-11-15T16:31:03;6.43;;;4.03;;
14092;SDS011;7123;49.468;10.992;2022-11-15T16:33:31;8.77;;;3.50;;
14092;SDS011;7123;49.468;10.992;2022-11-15T16:35:59;7.80;;;3.90;;
14092;SDS011;7123;49.468;10.992;2022-11-15T16:38:26;6.97;;;4.60;;
14092;SDS011;7123;49.468;10.992;2022-11-15T16:40:53;5.50;;;4.50;;
14092;SDS011;7123;49.468;10.992;2022-11-15T16:43:20;7.70;;;5.43;;
14092;SDS011;7123;49.468;10.992;2022-11-15T16:45:46;6.27;;;5.33;;
14092;SDS011;7123;49.468;10.992;2022-11-15T16:48:19;8.77;;;5.07;;
14092;SDS011;7123;49.468;10.992;2022-11-15T16:50:54;9.10;;;5.93;;
14092;SDS011;7123;49.468;10.992;2022-11-15T16:53:22;12.57;;;5.83;;
14092;SDS011;7123;49.468;10.992;2022-11-15T16:55:50;13.80;;;6.33;;
14092;SDS011;7123;49.468;10.992;2022-11-15T16:58:17;13.90;;;7.00;;
14092;SDS011;7123;49.468;10.992;2022-11-15T17:00:43;13.23;;;6.63;;
14092;SDS011;7123;49.468;10.992;2022-11-15T17:03:10;12.90;;;8.03;;
14092;SDS011;7123;49.468;10.992;2022-11-15T17:05:37;12.93;;;7.17;;
14092;SDS011;7123;49.468;10.992;2022-11-15T17:08:04;13.20;;;7.80;;
14092;SDS011;7123;49.468;10.992;2022-11-15T17:10:31;10.53;;;6.90;;
14092;SDS011;7123;49.468;10.992;2022-11-15T17:12:58;15.83;;;7.00;;
14092;SDS011;7123;49.468;10.992;2022-11-15T17:15:24;13.27;;;7.73;;
14092;SDS011;7123;49.468;10.992;2022-11-15T17:17:52;11.03;;;7.37;;
14092;SDS011;7123;49.468;10.992;2022-11-15T17:20:21;15.87;;;8.03;;
14092;SDS011;7123;49.468;10.992;2022-11-15T17:22:49;15.60;;;7.87;;
14092;SDS011;7123;49.468;10.992;2022-11-15T17:25:16;14.27;;;7.77;;
14092;SDS011;7123;49.468;10.992;2022-11-15T17:27:43;13.47;;;8.30;;
14092;SDS011;7123;49.468;10.992;2022-11-15T17:30:11;13.40;;;7.53;;
14092;SDS011;7123;49.468;10.992;2022-11-15T17:32:40;11.53;;;7.57;;
14092;SDS011;7123;49.468;10.992;2022-11-15T17:35:08;12.70;;;8.40;;
14092;SDS011;7123;49.468;10.992;2022-11-15T17:37:41;14.07;;;7.60;;
14092;SDS011;7123;49.468;10.992;2022-11-15T17:40:08;9.77;;;7.33;;
14092;SDS011;7123;49.468;10.992;2022-11-15T17:42:36;11.43;;;7.13;;